Airfield :
LOGIN :

Register | Disclaimer

   EN    FR    IT 

 










Legend :    VFR   Marginal VFR   IFR   Intensive IFR   Very Intensive IFR
Visi :
Ceiling :
>= 8 km
>= 3000ft
5 to 8 km
1000 to 3000 ft
1500m to 5 km
500 to 1000 ft
800 to 1500m
200 to 500 ft
< 800m
< 200 ft
Symbols :   Thunderstorms  Fog  Heavy snow  Heavy precipitations  Wind > 20 kt
SIGMETs :     Misc.  Thunderstorms  Icing  Turbulence  Mountain Waves  Volcanic Ashes






- Airport Elevation : 821 ft
- IATA code : LYS


LFLL - Lyon St Exupéry / Satolas

CURRENT METAR :
  • 280500Z 13007KT 9999 FEW048 SCT056 BKN100 10/09 Q1016 NOSIG

EXPIRED METARs :
  • 280430Z 14008KT 9999 FEW046 BKN100 BKN130 10/08 Q1015 NOSIG
  • 280400Z 13007KT 9999 FEW026 BKN083 10/08 Q1015 NOSIG
  • 280330Z 16007KT 6000 -SHRA FEW026 BKN046 BKN053 10/08 Q1015 NOSIG
  • 280300Z 15005KT 120V200 6000 -SHRA SCT040 BKN046 BKN053 10/08 Q1015 NOSIG
  • 280230Z 16006KT 8000 -SHRA SCT040 BKN048 BKN060 11/08 Q1015 NOSIG

TAF TAF LFLL
Valid from the 28 at 00:00 until the 29 at 06:00 UTC


272300Z 2800/2906 15007KT 9999 BKN050
TEMPO 2800/2806 6000 -RA BKN040
BECMG 2806/2808 SCT050
PROB30
TEMPO 2814/2818 -SHRA FEW045TCU BKN050



MET'MAP, your aeronautical weather chart ! - Copyright ORBIFLY December 2007 - Disclaimer

ORBIFLY MET'MAP TEAM :

Programming & Development : Alexandra Zaïnal
Concept & original design : Baudouin d'Aumeries
Assistance for programming : Marc-Olivier Méhu
Technical & hardware support : Manuel Goepfert

Contact : metmap@orbifly.com




SOURCES & CREDITS :

   NOAA